sensor_id;sensor_type;location;lat;lon;timestamp;P1;durP1;ratioP1;P2;durP2;ratioP2
50781;SDS011;36749;37.428;-121.972;2023-02-21T00:02:32;5.53;;;2.55;;
50781;SDS011;36749;37.428;-121.972;2023-02-21T00:05:16;6.53;;;3.45;;
50781;SDS011;36749;37.428;-121.972;2023-02-21T00:08:01;7.35;;;3.10;;
50781;SDS011;36749;37.428;-121.972;2023-02-21T00:10:45;8.05;;;3.55;;
50781;SDS011;36749;37.428;-121.972;2023-02-21T00:13:29;4.35;;;2.95;;
50781;SDS011;36749;37.428;-121.972;2023-02-21T00:18:59;5.18;;;2.92;;
50781;SDS011;36749;37.428;-121.972;2023-02-21T00:24:31;7.60;;;3.08;;
50781;SDS011;36749;37.428;-121.972;2023-02-21T00:30:00;4.85;;;2.92;;
50781;SDS011;36749;37.428;-121.972;2023-02-21T00:35:28;6.00;;;3.17;;
50781;SDS011;36749;37.428;-121.972;2023-02-21T00:38:12;18.27;;;4.22;;
50781;SDS011;36749;37.428;-121.972;2023-02-21T00:40:57;10.02;;;4.18;;
50781;SDS011;36749;37.428;-121.972;2023-02-21T00:43:42;8.57;;;3.60;;
50781;SDS011;36749;37.428;-121.972;2023-02-21T00:46:27;4.60;;;3.00;;
50781;SDS011;36749;37.428;-121.972;2023-02-21T00:49:11;7.85;;;3.40;;
50781;SDS011;36749;37.428;-121.972;2023-02-21T00:54:40;6.60;;;3.38;;
50781;SDS011;36749;37.428;-121.972;2023-02-21T00:57:24;5.85;;;3.03;;
50781;SDS011;36749;37.428;-121.972;2023-02-21T01:00:13;6.68;;;2.95;;
50781;SDS011;36749;37.428;-121.972;2023-02-21T01:03:00;7.50;;;3.63;;
50781;SDS011;36749;37.428;-121.972;2023-02-21T01:05:48;6.15;;;3.17;;
50781;SDS011;36749;37.428;-121.972;2023-02-21T01:08:33;7.50;;;3.63;;
50781;SDS011;36749;37.428;-121.972;2023-02-21T01:14:12;5.65;;;3.08;;
50781;SDS011;36749;37.428;-121.972;2023-02-21T01:16:56;8.98;;;3.38;;
50781;SDS011;36749;37.428;-121.972;2023-02-21T01:19:41;9.13;;;3.33;;
50781;SDS011;36749;37.428;-121.972;2023-02-21T01:22:26;10.50;;;3.40;;
50781;SDS011;36749;37.428;-121.972;2023-02-21T01:25:11;9.70;;;3.88;;
50781;SDS011;36749;37.428;-121.972;2023-02-21T01:27:55;11.95;;;4.00;;
50781;SDS011;36749;37.428;-121.972;2023-02-21T01:30:40;8.32;;;3.42;;
50781;SDS011;36749;37.428;-121.972;2023-02-21T01:33:24;11.80;;;4.05;;
50781;SDS011;36749;37.428;-121.972;2023-02-21T01:36:09;11.55;;;4.13;;
50781;SDS011;36749;37.428;-121.972;2023-02-21T01:38:54;14.25;;;4.47;;
50781;SDS011;36749;37.428;-121.972;2023-02-21T01:41:38;8.45;;;4.03;;
50781;SDS011;36749;37.428;-121.972;2023-02-21T01:47:29;11.15;;;4.30;;
50781;SDS011;36749;37.428;-121.972;2023-02-21T01:50:21;8.15;;;3.55;;
50781;SDS011;36749;37.428;-121.972;2023-02-21T01:53:13;16.42;;;4.90;;
50781;SDS011;36749;37.428;-121.972;2023-02-21T01:56:00;9.82;;;3.80;;
50781;SDS011;36749;37.428;-121.972;2023-02-21T01:58:45;9.32;;;3.40;;
50781;SDS011;36749;37.428;-121.972;2023-02-21T02:01:50;13.05;;;4.22;;
50781;SDS011;36749;37.428;-121.972;2023-02-21T02:04:47;13.55;;;3.80;;
50781;SDS011;36749;37.428;-121.972;2023-02-21T02:07:33;14.98;;;5.07;;
50781;SDS011;36749;37.428;-121.972;2023-02-21T02:10:17;18.27;;;5.03;;
50781;SDS011;36749;37.428;-121.972;2023-02-21T02:21:33;9.80;;;4.13;;
50781;SDS011;36749;37.428;-121.972;2023-02-21T02:24:24;18.98;;;5.45;;
50781;SDS011;36749;37.428;-121.972;2023-02-21T02:35:29;21.08;;;5.80;;
50781;SDS011;36749;37.428;-121.972;2023-02-21T02:38:01;15.13;;;5.90;;
50781;SDS011;36749;37.428;-121.972;2023-02-21T02:40:42;21.02;;;5.82;;
50781;SDS011;36749;37.428;-121.972;2023-02-21T02:43:16;14.93;;;5.45;;
50781;SDS011;36749;37.428;-121.972;2023-02-21T02:45:52;16.40;;;4.93;;
50781;SDS011;36749;37.428;-121.972;2023-02-21T02:51:10;15.88;;;4.70;;
50781;SDS011;36749;37.428;-121.972;2023-02-21T02:53:37;17.90;;;5.07;;
50781;SDS011;36749;37.428;-121.972;2023-02-21T02:56:05;16.42;;;4.30;;
50781;SDS011;36749;37.428;-121.972;2023-02-21T02:58:47;18.40;;;4.47;;
50781;SDS011;36749;37.428;-121.972;2023-02-21T03:07:36;22.80;;;5.00;;
50781;SDS011;36749;37.428;-121.972;2023-02-21T03:13:11;18.70;;;5.22;;
50781;SDS011;36749;37.428;-121.972;2023-02-21T03:15:54;16.83;;;5.00;;
50781;SDS011;36749;37.428;-121.972;2023-02-21T03:21:22;22.38;;;5.20;;
50781;SDS011;36749;37.428;-121.972;2023-02-21T03:23:52;24.48;;;5.60;;
50781;SDS011;36749;37.428;-121.972;2023-02-21T03:26:19;16.58;;;5.78;;
50781;SDS011;36749;37.428;-121.972;2023-02-21T03:28:46;21.58;;;6.65;;
50781;SDS011;36749;37.428;-121.972;2023-02-21T03:31:13;25.10;;;6.15;;
50781;SDS011;36749;37.428;-121.972;2023-02-21T03:33:42;23.73;;;6.30;;
50781;SDS011;36749;37.428;-121.972;2023-02-21T03:36:09;32.10;;;7.65;;
50781;SDS011;36749;37.428;-121.972;2023-02-21T03:38:35;26.77;;;7.00;;
50781;SDS011;36749;37.428;-121.972;2023-02-21T03:41:02;22.70;;;6.57;;
50781;SDS011;36749;37.428;-121.972;2023-02-21T03:43:28;17.98;;;5.97;;
50781;SDS011;36749;37.428;-121.972;2023-02-21T03:45:54;43.88;;;7.22;;
50781;SDS011;36749;37.428;-121.972;2023-02-21T03:48:21;29.27;;;6.45;;
50781;SDS011;36749;37.428;-121.972;2023-02-21T03:50:47;23.30;;;6.07;;
50781;SDS011;36749;37.428;-121.972;2023-02-21T03:53:14;21.85;;;6.95;;
50781;SDS011;36749;37.428;-121.972;2023-02-21T03:55:40;27.15;;;7.38;;
50781;SDS011;36749;37.428;-121.972;2023-02-21T03:58:06;20.70;;;6.05;;
50781;SDS011;36749;37.428;-121.972;2023-02-21T04:00:32;24.27;;;6.85;;
50781;SDS011;36749;37.428;-121.972;2023-02-21T04:02:59;28.45;;;6.93;;
50781;SDS011;36749;37.428;-121.972;2023-02-21T04:05:25;22.98;;;6.28;;
50781;SDS011;36749;37.428;-121.972;2023-02-21T04:07:51;20.40;;;4.95;;
50781;SDS011;36749;37.428;-121.972;2023-02-21T04:10:17;18.88;;;5.78;;
50781;SDS011;36749;37.428;-121.972;2023-02-21T04:12:43;30.83;;;7.00;;
50781;SDS011;36749;37.428;-121.972;2023-02-21T04:15:10;21.67;;;5.80;;
50781;SDS011;36749;37.428;-121.972;2023-02-21T04:17:36;20.02;;;6.35;;
50781;SDS011;36749;37.428;-121.972;2023-02-21T04:20:03;20.52;;;5.70;;
50781;SDS011;36749;37.428;-121.972;2023-02-21T04:22:29;18.80;;;5.07;;
50781;SDS011;36749;37.428;-121.972;2023-02-21T04:24:55;27.10;;;6.20;;
50781;SDS011;36749;37.428;-121.972;2023-02-21T04:27:22;24.00;;;5.55;;
50781;SDS011;36749;37.428;-121.972;2023-02-21T04:29:48;22.13;;;5.38;;
50781;SDS011;36749;37.428;-121.972;2023-02-21T04:32:14;19.50;;;5.68;;
50781;SDS011;36749;37.428;-121.972;2023-02-21T04:34:41;18.92;;;5.60;;
50781;SDS011;36749;37.428;-121.972;2023-02-21T04:37:07;18.77;;;5.70;;
50781;SDS011;36749;37.428;-121.972;2023-02-21T04:39:33;25.42;;;6.00;;
50781;SDS011;36749;37.428;-121.972;2023-02-21T04:41:59;17.02;;;5.88;;
50781;SDS011;36749;37.428;-121.972;2023-02-21T04:44:26;19.83;;;5.85;;
50781;SDS011;36749;37.428;-121.972;2023-02-21T04:46:52;16.92;;;5.45;;
50781;SDS011;36749;37.428;-121.972;2023-02-21T04:49:18;16.35;;;5.28;;
50781;SDS011;36749;37.428;-121.972;2023-02-21T04:51:45;19.70;;;5.93;;
50781;SDS011;36749;37.428;-121.972;2023-02-21T04:54:11;20.73;;;6.95;;
50781;SDS011;36749;37.428;-121.972;2023-02-21T04:56:37;21.38;;;6.40;;
50781;SDS011;36749;37.428;-121.972;2023-02-21T04:59:03;23.30;;;6.10;;
50781;SDS011;36749;37.428;-121.972;2023-02-21T05:01:30;23.60;;;6.10;;
50781;SDS011;36749;37.428;-121.972;2023-02-21T05:03:57;21.75;;;6.30;;
50781;SDS011;36749;37.428;-121.972;2023-02-21T05:06:24;21.48;;;6.53;;
50781;SDS011;36749;37.428;-121.972;2023-02-21T05:08:52;25.02;;;6.60;;
50781;SDS011;36749;37.428;-121.972;2023-02-21T05:11:18;21.05;;;5.50;;
50781;SDS011;36749;37.428;-121.972;2023-02-21T05:13:45;25.48;;;6.65;;
50781;SDS011;36749;37.428;-121.972;2023-02-21T05:16:12;20.80;;;6.00;;
50781;SDS011;36749;37.428;-121.972;2023-02-21T05:18:40;22.33;;;6.28;;
50781;SDS011;36749;37.428;-121.972;2023-02-21T05:21:07;23.90;;;6.72;;
50781;SDS011;36749;37.428;-121.972;2023-02-21T05:23:33;21.42;;;6.57;;
50781;SDS011;36749;37.428;-121.972;2023-02-21T05:28:26;20.13;;;5.72;;
50781;SDS011;36749;37.428;-121.972;2023-02-21T05:30:53;19.77;;;5.28;;
50781;SDS011;36749;37.428;-121.972;2023-02-21T05:33:19;22.98;;;6.10;;
50781;SDS011;36749;37.428;-121.972;2023-02-21T05:35:45;22.45;;;6.53;;
50781;SDS011;36749;37.428;-121.972;2023-02-21T05:38:13;19.25;;;7.57;;
50781;SDS011;36749;37.428;-121.972;2023-02-21T05:40:40;23.13;;;7.53;;
50781;SDS011;36749;37.428;-121.972;2023-02-21T05:43:06;31.75;;;6.53;;
50781;SDS011;36749;37.428;-121.972;2023-02-21T05:45:32;28.13;;;7.28;;
50781;SDS011;36749;37.428;-121.972;2023-02-21T05:47:58;23.75;;;6.65;;
50781;SDS011;36749;37.428;-121.972;2023-02-21T05:50:27;20.52;;;6.45;;
50781;SDS011;36749;37.428;-121.972;2023-02-21T05:52:54;27.65;;;5.85;;
50781;SDS011;36749;37.428;-121.972;2023-02-21T05:55:21;24.08;;;6.60;;
50781;SDS011;36749;37.428;-121.972;2023-02-21T05:57:47;20.90;;;6.20;;
50781;SDS011;36749;37.428;-121.972;2023-02-21T06:00:17;19.35;;;6.20;;
50781;SDS011;36749;37.428;-121.972;2023-02-21T06:02:45;28.08;;;6.95;;
50781;SDS011;36749;37.428;-121.972;2023-02-21T06:05:11;22.30;;;5.18;;
50781;SDS011;36749;37.428;-121.972;2023-02-21T06:07:38;20.88;;;5.13;;
50781;SDS011;36749;37.428;-121.972;2023-02-21T06:10:04;16.60;;;5.40;;
50781;SDS011;36749;37.428;-121.972;2023-02-21T06:12:30;23.52;;;5.80;;
50781;SDS011;36749;37.428;-121.972;2023-02-21T06:14:57;28.83;;;7.05;;
50781;SDS011;36749;37.428;-121.972;2023-02-21T06:17:23;20.80;;;5.90;;
50781;SDS011;36749;37.428;-121.972;2023-02-21T06:19:49;20.30;;;6.63;;
50781;SDS011;36749;37.428;-121.972;2023-02-21T06:22:16;21.08;;;6.63;;
50781;SDS011;36749;37.428;-121.972;2023-02-21T06:24:42;24.17;;;6.78;;
50781;SDS011;36749;37.428;-121.972;2023-02-21T06:27:08;18.75;;;5.47;;
50781;SDS011;36749;37.428;-121.972;2023-02-21T06:29:35;18.05;;;5.60;;
50781;SDS011;36749;37.428;-121.972;2023-02-21T06:32:01;22.10;;;6.90;;
50781;SDS011;36749;37.428;-121.972;2023-02-21T06:34:27;31.77;;;7.00;;
50781;SDS011;36749;37.428;-121.972;2023-02-21T06:36:54;18.83;;;5.35;;
50781;SDS011;36749;37.428;-121.972;2023-02-21T06:39:20;20.63;;;5.70;;
50781;SDS011;36749;37.428;-121.972;2023-02-21T06:41:50;19.67;;;6.03;;
50781;SDS011;36749;37.428;-121.972;2023-02-21T06:44:17;19.63;;;5.97;;
50781;SDS011;36749;37.428;-121.972;2023-02-21T06:46:44;22.45;;;7.25;;
50781;SDS011;36749;37.428;-121.972;2023-02-21T06:49:10;24.85;;;6.05;;
50781;SDS011;36749;37.428;-121.972;2023-02-21T06:51:38;22.90;;;7.30;;
50781;SDS011;36749;37.428;-121.972;2023-02-21T06:54:05;23.50;;;6.57;;
50781;SDS011;36749;37.428;-121.972;2023-02-21T06:56:35;20.92;;;6.45;;
50781;SDS011;36749;37.428;-121.972;2023-02-21T06:59:01;20.83;;;5.85;;
50781;SDS011;36749;37.428;-121.972;2023-02-21T07:01:29;21.00;;;6.80;;
50781;SDS011;36749;37.428;-121.972;2023-02-21T07:03:55;18.40;;;5.43;;
50781;SDS011;36749;37.428;-121.972;2023-02-21T07:06:22;18.58;;;6.22;;
50781;SDS011;36749;37.428;-121.972;2023-02-21T07:08:49;18.67;;;6.07;;
50781;SDS011;36749;37.428;-121.972;2023-02-21T07:11:16;21.10;;;6.68;;
50781;SDS011;36749;37.428;-121.972;2023-02-21T07:13:46;22.92;;;6.60;;
50781;SDS011;36749;37.428;-121.972;2023-02-21T07:16:14;17.48;;;6.25;;
50781;SDS011;36749;37.428;-121.972;2023-02-21T07:18:42;24.27;;;7.13;;
50781;SDS011;36749;37.428;-121.972;2023-02-21T07:21:10;19.58;;;6.75;;
50781;SDS011;36749;37.428;-121.972;2023-02-21T07:23:36;19.75;;;6.90;;
50781;SDS011;36749;37.428;-121.972;2023-02-21T07:26:03;20.25;;;6.43;;
50781;SDS011;36749;37.428;-121.972;2023-02-21T07:28:29;16.85;;;6.28;;
50781;SDS011;36749;37.428;-121.972;2023-02-21T07:30:55;21.88;;;6.40;;
50781;SDS011;36749;37.428;-121.972;2023-02-21T07:33:21;17.58;;;6.43;;
50781;SDS011;36749;37.428;-121.972;2023-02-21T07:35:47;20.83;;;6.30;;
50781;SDS011;36749;37.428;-121.972;2023-02-21T07:38:23;18.67;;;5.55;;
50781;SDS011;36749;37.428;-121.972;2023-02-21T07:40:55;22.63;;;7.00;;
50781;SDS011;36749;37.428;-121.972;2023-02-21T07:43:21;17.88;;;6.03;;
50781;SDS011;36749;37.428;-121.972;2023-02-21T07:45:49;20.23;;;6.53;;
50781;SDS011;36749;37.428;-121.972;2023-02-21T07:48:16;22.95;;;6.97;;
50781;SDS011;36749;37.428;-121.972;2023-02-21T07:50:42;16.13;;;5.40;;
50781;SDS011;36749;37.428;-121.972;2023-02-21T07:53:09;19.85;;;6.82;;
50781;SDS011;36749;37.428;-121.972;2023-02-21T07:55:36;24.95;;;7.20;;
50781;SDS011;36749;37.428;-121.972;2023-02-21T07:58:02;14.75;;;5.85;;
50781;SDS011;36749;37.428;-121.972;2023-02-21T08:00:29;16.67;;;5.90;;
50781;SDS011;36749;37.428;-121.972;2023-02-21T08:02:56;21.83;;;6.63;;
50781;SDS011;36749;37.428;-121.972;2023-02-21T08:05:22;17.98;;;6.00;;
50781;SDS011;36749;37.428;-121.972;2023-02-21T08:07:48;18.10;;;6.68;;
50781;SDS011;36749;37.428;-121.972;2023-02-21T08:10:19;19.85;;;5.97;;
50781;SDS011;36749;37.428;-121.972;2023-02-21T08:12:48;21.38;;;6.68;;
50781;SDS011;36749;37.428;-121.972;2023-02-21T08:15:14;18.42;;;6.32;;
50781;SDS011;36749;37.428;-121.972;2023-02-21T08:17:40;21.52;;;5.88;;
50781;SDS011;36749;37.428;-121.972;2023-02-21T08:20:07;27.40;;;6.00;;
50781;SDS011;36749;37.428;-121.972;2023-02-21T08:22:35;20.45;;;6.93;;
50781;SDS011;36749;37.428;-121.972;2023-02-21T08:25:01;25.50;;;7.25;;
50781;SDS011;36749;37.428;-121.972;2023-02-21T08:27:28;21.45;;;6.80;;
50781;SDS011;36749;37.428;-121.972;2023-02-21T08:29:54;22.65;;;7.03;;
50781;SDS011;36749;37.428;-121.972;2023-02-21T08:32:21;21.67;;;7.32;;
50781;SDS011;36749;37.428;-121.972;2023-02-21T08:34:47;20.38;;;7.47;;
50781;SDS011;36749;37.428;-121.972;2023-02-21T08:37:15;25.75;;;8.02;;
50781;SDS011;36749;37.428;-121.972;2023-02-21T08:39:47;24.95;;;7.72;;
50781;SDS011;36749;37.428;-121.972;2023-02-21T08:42:16;24.35;;;7.60;;
50781;SDS011;36749;37.428;-121.972;2023-02-21T08:44:43;26.17;;;7.65;;
50781;SDS011;36749;37.428;-121.972;2023-02-21T08:47:11;22.17;;;7.78;;
50781;SDS011;36749;37.428;-121.972;2023-02-21T08:49:37;20.10;;;7.03;;
50781;SDS011;36749;37.428;-121.972;2023-02-21T08:52:05;20.02;;;7.07;;
50781;SDS011;36749;37.428;-121.972;2023-02-21T08:54:32;16.85;;;6.47;;
50781;SDS011;36749;37.428;-121.972;2023-02-21T08:56:58;26.33;;;8.15;;
50781;SDS011;36749;37.428;-121.972;2023-02-21T08:59:25;19.25;;;6.78;;
50781;SDS011;36749;37.428;-121.972;2023-02-21T09:01:52;21.60;;;8.05;;
50781;SDS011;36749;37.428;-121.972;2023-02-21T09:04:21;23.55;;;8.35;;
50781;SDS011;36749;37.428;-121.972;2023-02-21T09:06:49;29.23;;;9.00;;
50781;SDS011;36749;37.428;-121.972;2023-02-21T09:09:15;19.88;;;8.20;;
50781;SDS011;36749;37.428;-121.972;2023-02-21T09:11:42;24.45;;;9.10;;
50781;SDS011;36749;37.428;-121.972;2023-02-21T09:14:11;18.75;;;7.95;;
50781;SDS011;36749;37.428;-121.972;2023-02-21T09:16:37;23.33;;;8.18;;
50781;SDS011;36749;37.428;-121.972;2023-02-21T09:19:04;23.95;;;8.90;;
50781;SDS011;36749;37.428;-121.972;2023-02-21T09:21:32;21.88;;;8.60;;
50781;SDS011;36749;37.428;-121.972;2023-02-21T09:23:58;19.02;;;8.30;;
50781;SDS011;36749;37.428;-121.972;2023-02-21T09:26:27;25.20;;;8.50;;
50781;SDS011;36749;37.428;-121.972;2023-02-21T09:28:56;20.70;;;8.52;;
50781;SDS011;36749;37.428;-121.972;2023-02-21T09:31:23;18.40;;;8.05;;
50781;SDS011;36749;37.428;-121.972;2023-02-21T09:33:49;22.08;;;8.25;;
50781;SDS011;36749;37.428;-121.972;2023-02-21T09:36:15;19.52;;;7.93;;
50781;SDS011;36749;37.428;-121.972;2023-02-21T09:38:48;18.20;;;8.63;;
50781;SDS011;36749;37.428;-121.972;2023-02-21T09:41:17;20.60;;;8.55;;
50781;SDS011;36749;37.428;-121.972;2023-02-21T09:43:45;20.48;;;8.30;;
50781;SDS011;36749;37.428;-121.972;2023-02-21T09:46:15;23.83;;;10.95;;
50781;SDS011;36749;37.428;-121.972;2023-02-21T09:48:44;22.25;;;8.15;;
50781;SDS011;36749;37.428;-121.972;2023-02-21T09:51:10;24.65;;;8.85;;
50781;SDS011;36749;37.428;-121.972;2023-02-21T09:53:41;21.35;;;8.85;;
50781;SDS011;36749;37.428;-121.972;2023-02-21T09:56:20;22.58;;;8.93;;
50781;SDS011;36749;37.428;-121.972;2023-02-21T09:58:52;20.20;;;9.27;;
50781;SDS011;36749;37.428;-121.972;2023-02-21T10:04:20;28.67;;;11.80;;
50781;SDS011;36749;37.428;-121.972;2023-02-21T10:07:15;18.23;;;8.80;;
50781;SDS011;36749;37.428;-121.972;2023-02-21T10:09:45;22.10;;;9.38;;
50781;SDS011;36749;37.428;-121.972;2023-02-21T10:12:37;18.25;;;7.80;;
50781;SDS011;36749;37.428;-121.972;2023-02-21T10:18:21;20.15;;;8.48;;
50781;SDS011;36749;37.428;-121.972;2023-02-21T10:20:54;19.45;;;8.20;;
50781;SDS011;36749;37.428;-121.972;2023-02-21T10:23:46;18.60;;;8.18;;
50781;SDS011;36749;37.428;-121.972;2023-02-21T10:26:47;21.35;;;8.68;;
50781;SDS011;36749;37.428;-121.972;2023-02-21T10:32:13;18.70;;;7.40;;
50781;SDS011;36749;37.428;-121.972;2023-02-21T10:34:39;18.20;;;8.25;;
50781;SDS011;36749;37.428;-121.972;2023-02-21T10:40:00;25.67;;;9.98;;
50781;SDS011;36749;37.428;-121.972;2023-02-21T10:42:47;20.90;;;9.70;;
50781;SDS011;36749;37.428;-121.972;2023-02-21T10:45:15;20.70;;;9.38;;
50781;SDS011;36749;37.428;-121.972;2023-02-21T10:50:44;20.55;;;8.85;;
50781;SDS011;36749;37.428;-121.972;2023-02-21T10:53:37;20.48;;;8.05;;
50781;SDS011;36749;37.428;-121.972;2023-02-21T11:01:13;18.55;;;8.48;;
50781;SDS011;36749;37.428;-121.972;2023-02-21T11:03:45;23.10;;;8.80;;
50781;SDS011;36749;37.428;-121.972;2023-02-21T11:06:21;21.00;;;7.35;;
50781;SDS011;36749;37.428;-121.972;2023-02-21T11:08:53;21.80;;;7.88;;
50781;SDS011;36749;37.428;-121.972;2023-02-21T11:11:33;19.48;;;7.95;;
50781;SDS011;36749;37.428;-121.972;2023-02-21T11:16:41;18.27;;;8.20;;
50781;SDS011;36749;37.428;-121.972;2023-02-21T11:19:09;14.95;;;7.32;;
50781;SDS011;36749;37.428;-121.972;2023-02-21T11:21:38;17.00;;;7.13;;
50781;SDS011;36749;37.428;-121.972;2023-02-21T11:24:06;20.10;;;7.40;;
50781;SDS011;36749;37.428;-121.972;2023-02-21T11:26:37;15.80;;;7.53;;
50781;SDS011;36749;37.428;-121.972;2023-02-21T11:29:11;17.13;;;7.10;;
50781;SDS011;36749;37.428;-121.972;2023-02-21T11:31:39;20.13;;;7.47;;
50781;SDS011;36749;37.428;-121.972;2023-02-21T11:34:08;15.98;;;7.05;;
50781;SDS011;36749;37.428;-121.972;2023-02-21T11:36:35;17.23;;;7.25;;
50781;SDS011;36749;37.428;-121.972;2023-02-21T11:41:45;16.23;;;7.05;;
50781;SDS011;36749;37.428;-121.972;2023-02-21T11:44:26;15.68;;;6.88;;
50781;SDS011;36749;37.428;-121.972;2023-02-21T11:47:13;17.95;;;7.22;;
50781;SDS011;36749;37.428;-121.972;2023-02-21T11:52:50;17.83;;;7.57;;
50781;SDS011;36749;37.428;-121.972;2023-02-21T11:55:23;15.65;;;6.55;;
50781;SDS011;36749;37.428;-121.972;2023-02-21T12:00:49;18.17;;;6.82;;
50781;SDS011;36749;37.428;-121.972;2023-02-21T12:03:33;15.38;;;7.38;;
50781;SDS011;36749;37.428;-121.972;2023-02-21T12:12:07;13.30;;;6.60;;
50781;SDS011;36749;37.428;-121.972;2023-02-21T12:14:59;16.05;;;6.95;;
50781;SDS011;36749;37.428;-121.972;2023-02-21T12:25:35;16.42;;;6.82;;
50781;SDS011;36749;37.428;-121.972;2023-02-21T12:31:07;9.68;;;5.65;;
50781;SDS011;36749;37.428;-121.972;2023-02-21T12:47:37;18.20;;;7.22;;
50781;SDS011;36749;37.428;-121.972;2023-02-21T12:50:12;14.82;;;7.13;;
50781;SDS011;36749;37.428;-121.972;2023-02-21T12:55:39;14.95;;;6.53;;
50781;SDS011;36749;37.428;-121.972;2023-02-21T13:00:59;15.38;;;6.97;;
50781;SDS011;36749;37.428;-121.972;2023-02-21T13:06:31;13.57;;;5.72;;
50781;SDS011;36749;37.428;-121.972;2023-02-21T13:14:50;24.38;;;9.27;;
50781;SDS011;36749;37.428;-121.972;2023-02-21T13:17:20;17.55;;;7.00;;
50781;SDS011;36749;37.428;-121.972;2023-02-21T13:25:47;45.83;;;8.80;;
50781;SDS011;36749;37.428;-121.972;2023-02-21T13:28:24;28.38;;;8.65;;
50781;SDS011;36749;37.428;-121.972;2023-02-21T13:31:00;26.90;;;7.78;;
50781;SDS011;36749;37.428;-121.972;2023-02-21T13:36:25;35.08;;;9.20;;
50781;SDS011;36749;37.428;-121.972;2023-02-21T13:41:42;23.50;;;7.35;;
50781;SDS011;36749;37.428;-121.972;2023-02-21T13:44:18;27.00;;;7.63;;
50781;SDS011;36749;37.428;-121.972;2023-02-21T13:49:40;26.45;;;9.20;;
50781;SDS011;36749;37.428;-121.972;2023-02-21T13:57:45;26.95;;;6.72;;
50781;SDS011;36749;37.428;-121.972;2023-02-21T14:15:50;34.60;;;8.23;;
50781;SDS011;36749;37.428;-121.972;2023-02-21T14:18:27;35.58;;;8.93;;
50781;SDS011;36749;37.428;-121.972;2023-02-21T14:20:55;33.47;;;8.80;;
50781;SDS011;36749;37.428;-121.972;2023-02-21T14:23:23;50.53;;;8.65;;
50781;SDS011;36749;37.428;-121.972;2023-02-21T14:26:33;41.03;;;8.38;;
50781;SDS011;36749;37.428;-121.972;2023-02-21T14:34:23;38.20;;;8.93;;
50781;SDS011;36749;37.428;-121.972;2023-02-21T14:50:42;30.65;;;8.63;;
50781;SDS011;36749;37.428;-121.972;2023-02-21T15:07:52;43.97;;;11.38;;
50781;SDS011;36749;37.428;-121.972;2023-02-21T15:10:31;41.88;;;7.68;;
50781;SDS011;36749;37.428;-121.972;2023-02-21T15:13:04;44.40;;;8.85;;
50781;SDS011;36749;37.428;-121.972;2023-02-21T15:15:34;33.70;;;7.45;;
50781;SDS011;36749;37.428;-121.972;2023-02-21T15:18:19;40.80;;;9.00;;
50781;SDS011;36749;37.428;-121.972;2023-02-21T15:21:06;32.35;;;7.95;;
50781;SDS011;36749;37.428;-121.972;2023-02-21T15:23:36;35.88;;;8.55;;
50781;SDS011;36749;37.428;-121.972;2023-02-21T15:26:19;33.83;;;8.35;;
50781;SDS011;36749;37.428;-121.972;2023-02-21T15:31:52;38.60;;;8.40;;
50781;SDS011;36749;37.428;-121.972;2023-02-21T15:34:30;43.70;;;9.27;;
50781;SDS011;36749;37.428;-121.972;2023-02-21T15:37:18;28.50;;;7.28;;
50781;SDS011;36749;37.428;-121.972;2023-02-21T15:39:51;29.80;;;7.28;;
50781;SDS011;36749;37.428;-121.972;2023-02-21T15:42:19;34.30;;;8.85;;
50781;SDS011;36749;37.428;-121.972;2023-02-21T15:47:32;31.98;;;7.88;;
50781;SDS011;36749;37.428;-121.972;2023-02-21T15:53:09;23.98;;;5.82;;
50781;SDS011;36749;37.428;-121.972;2023-02-21T15:55:39;39.40;;;7.35;;
50781;SDS011;36749;37.428;-121.972;2023-02-21T16:01:18;27.48;;;6.28;;
50781;SDS011;36749;37.428;-121.972;2023-02-21T16:03:50;30.38;;;7.90;;
50781;SDS011;36749;37.428;-121.972;2023-02-21T16:06:53;32.50;;;7.82;;
50781;SDS011;36749;37.428;-121.972;2023-02-21T16:17:15;34.53;;;9.10;;
50781;SDS011;36749;37.428;-121.972;2023-02-21T16:19:53;43.95;;;11.05;;
50781;SDS011;36749;37.428;-121.972;2023-02-21T16:22:25;30.05;;;8.93;;
50781;SDS011;36749;37.428;-121.972;2023-02-21T16:27:36;39.53;;;10.82;;
50781;SDS011;36749;37.428;-121.972;2023-02-21T16:30:04;41.83;;;10.38;;
50781;SDS011;36749;37.428;-121.972;2023-02-21T16:32:31;28.85;;;9.77;;
50781;SDS011;36749;37.428;-121.972;2023-02-21T16:34:59;36.45;;;10.80;;
50781;SDS011;36749;37.428;-121.972;2023-02-21T16:37:26;40.13;;;12.90;;
50781;SDS011;36749;37.428;-121.972;2023-02-21T16:39:52;38.08;;;11.30;;
50781;SDS011;36749;37.428;-121.972;2023-02-21T16:42:19;38.67;;;10.02;;
50781;SDS011;36749;37.428;-121.972;2023-02-21T16:44:51;36.60;;;9.48;;
50781;SDS011;36749;37.428;-121.972;2023-02-21T16:47:19;34.20;;;10.10;;
50781;SDS011;36749;37.428;-121.972;2023-02-21T16:49:47;27.42;;;9.77;;
50781;SDS011;36749;37.428;-121.972;2023-02-21T16:52:14;33.22;;;8.65;;
50781;SDS011;36749;37.428;-121.972;2023-02-21T16:54:41;32.92;;;8.82;;
50781;SDS011;36749;37.428;-121.972;2023-02-21T16:57:08;40.22;;;9.25;;
50781;SDS011;36749;37.428;-121.972;2023-02-21T16:59:35;33.95;;;9.30;;
50781;SDS011;36749;37.428;-121.972;2023-02-21T17:02:02;40.25;;;9.45;;
50781;SDS011;36749;37.428;-121.972;2023-02-21T17:04:29;38.60;;;9.52;;
50781;SDS011;36749;37.428;-121.972;2023-02-21T17:07:00;35.35;;;8.88;;
50781;SDS011;36749;37.428;-121.972;2023-02-21T17:09:28;36.78;;;8.57;;
50781;SDS011;36749;37.428;-121.972;2023-02-21T17:12:03;29.30;;;8.55;;
50781;SDS011;36749;37.428;-121.972;2023-02-21T17:14:31;30.10;;;7.80;;
50781;SDS011;36749;37.428;-121.972;2023-02-21T17:16:57;30.45;;;9.23;;
50781;SDS011;36749;37.428;-121.972;2023-02-21T17:19:24;29.75;;;8.77;;
50781;SDS011;36749;37.428;-121.972;2023-02-21T17:21:50;36.45;;;8.10;;
50781;SDS011;36749;37.428;-121.972;2023-02-21T17:24:17;31.65;;;7.32;;
50781;SDS011;36749;37.428;-121.972;2023-02-21T17:27:38;34.30;;;9.00;;
50781;SDS011;36749;37.428;-121.972;2023-02-21T17:30:05;31.52;;;7.68;;
50781;SDS011;36749;37.428;-121.972;2023-02-21T17:32:32;33.90;;;7.63;;
50781;SDS011;36749;37.428;-121.972;2023-02-21T17:34:58;33.42;;;8.23;;
50781;SDS011;36749;37.428;-121.972;2023-02-21T17:37:24;23.58;;;7.05;;
50781;SDS011;36749;37.428;-121.972;2023-02-21T17:39:51;35.75;;;8.18;;
50781;SDS011;36749;37.428;-121.972;2023-02-21T17:42:18;27.08;;;7.40;;
50781;SDS011;36749;37.428;-121.972;2023-02-21T17:44:45;27.05;;;7.35;;
50781;SDS011;36749;37.428;-121.972;2023-02-21T17:47:20;27.52;;;6.63;;
50781;SDS011;36749;37.428;-121.972;2023-02-21T17:49:47;29.55;;;6.18;;
50781;SDS011;36749;37.428;-121.972;2023-02-21T17:52:15;25.67;;;6.32;;
50781;SDS011;36749;37.428;-121.972;2023-02-21T17:54:42;26.50;;;7.03;;
50781;SDS011;36749;37.428;-121.972;2023-02-21T17:57:08;34.08;;;7.30;;
50781;SDS011;36749;37.428;-121.972;2023-02-21T17:59:35;28.83;;;7.18;;
50781;SDS011;36749;37.428;-121.972;2023-02-21T18:02:01;25.88;;;7.20;;
50781;SDS011;36749;37.428;-121.972;2023-02-21T18:04:28;26.80;;;5.68;;
50781;SDS011;36749;37.428;-121.972;2023-02-21T18:06:54;23.33;;;5.85;;